Baku airport (UBBB)

baku-airport

Baku International Airport

Heydar Aliyev International Airport is the main international airport in Azerbaijan located 20 km (12 mi) northeast of the capital Baku. The airport is the home of Azerbaijan Airlines, the national flag carrier. It is the busiest airport in Azerbaijan and of the Caucasus.

ICAO: UBBB, IATA: GYD

Charts: Jeppesen

Sceneries: freeware demos w. reduced resolution

 fs9     fsx     Prepar

payware: http://www.drzewiecki-design.net/

METAR:

UBBB 210630Z 36014KT CAVOK 21/08 Q1019 R88/CLRD// NOSIG

TAF UBBB 210514Z 2106/2206 35016G26KT 9999 SCT030 BKN100 TX22/2111Z TN14/2203Z TEMPO 2106/2109 SCT012 FEW040CB BECMG 2109/2111 03014KT TEMPO 2114/2204 34008KT SCT006